sensor_id;sensor_type;location;lat;lon;timestamp;temperature;humidity
11055;DHT22;5580;50.106;8.702;2023-02-23T00:00:27;11.00;99.90
11055;DHT22;5580;50.106;8.702;2023-02-23T00:02:57;11.00;99.90
11055;DHT22;5580;50.106;8.702;2023-02-23T00:05:26;11.00;99.90
11055;DHT22;5580;50.106;8.702;2023-02-23T00:07:52;11.00;99.90
11055;DHT22;5580;50.106;8.702;2023-02-23T00:10:19;11.00;99.90
11055;DHT22;5580;50.106;8.702;2023-02-23T00:12:47;11.00;99.90
11055;DHT22;5580;50.106;8.702;2023-02-23T00:15:15;11.00;99.90
11055;DHT22;5580;50.106;8.702;2023-02-23T00:17:41;11.00;99.90
11055;DHT22;5580;50.106;8.702;2023-02-23T00:20:09;11.00;99.90
11055;DHT22;5580;50.106;8.702;2023-02-23T00:22:37;11.00;99.90
11055;DHT22;5580;50.106;8.702;2023-02-23T00:25:07;11.00;99.90
11055;DHT22;5580;50.106;8.702;2023-02-23T00:27:35;11.00;99.90
11055;DHT22;5580;50.106;8.702;2023-02-23T00:30:03;11.00;99.90
11055;DHT22;5580;50.106;8.702;2023-02-23T00:32:28;11.00;99.90
11055;DHT22;5580;50.106;8.702;2023-02-23T00:34:54;11.00;99.90
11055;DHT22;5580;50.106;8.702;2023-02-23T00:37:22;11.00;99.90
11055;DHT22;5580;50.106;8.702;2023-02-23T00:39:48;11.00;99.90
11055;DHT22;5580;50.106;8.702;2023-02-23T00:42:14;11.00;99.90
11055;DHT22;5580;50.106;8.702;2023-02-23T00:44:40;11.00;99.90
11055;DHT22;5580;50.106;8.702;2023-02-23T00:47:06;10.90;99.90
11055;DHT22;5580;50.106;8.702;2023-02-23T00:49:32;10.90;99.90
11055;DHT22;5580;50.106;8.702;2023-02-23T00:51:58;10.90;99.90
11055;DHT22;5580;50.106;8.702;2023-02-23T00:54:24;10.90;99.90
11055;DHT22;5580;50.106;8.702;2023-02-23T00:56:50;10.90;99.90
11055;DHT22;5580;50.106;8.702;2023-02-23T00:59:17;11.00;99.90
11055;DHT22;5580;50.106;8.702;2023-02-23T01:01:43;11.00;99.90
11055;DHT22;5580;50.106;8.702;2023-02-23T01:04:10;11.00;99.90
11055;DHT22;5580;50.106;8.702;2023-02-23T01:06:37;11.00;99.90
11055;DHT22;5580;50.106;8.702;2023-02-23T01:09:07;11.00;99.90
11055;DHT22;5580;50.106;8.702;2023-02-23T01:11:33;11.00;99.90
11055;DHT22;5580;50.106;8.702;2023-02-23T01:14:00;11.00;99.90
11055;DHT22;5580;50.106;8.702;2023-02-23T01:16:31;11.00;99.90
11055;DHT22;5580;50.106;8.702;2023-02-23T01:19:00;11.00;99.90
11055;DHT22;5580;50.106;8.702;2023-02-23T01:21:30;11.00;99.90
11055;DHT22;5580;50.106;8.702;2023-02-23T01:23:56;11.00;99.90
11055;DHT22;5580;50.106;8.702;2023-02-23T01:26:33;11.00;99.90
11055;DHT22;5580;50.106;8.702;2023-02-23T01:29:01;11.00;99.90
11055;DHT22;5580;50.106;8.702;2023-02-23T01:31:28;11.10;99.90
11055;DHT22;5580;50.106;8.702;2023-02-23T01:33:55;11.10;99.90
11055;DHT22;5580;50.106;8.702;2023-02-23T01:36:21;11.10;99.90
11055;DHT22;5580;50.106;8.702;2023-02-23T01:38:47;11.10;99.90
11055;DHT22;5580;50.106;8.702;2023-02-23T01:41:14;11.10;99.90
11055;DHT22;5580;50.106;8.702;2023-02-23T01:44:02;11.00;99.90
11055;DHT22;5580;50.106;8.702;2023-02-23T01:46:31;11.10;99.90
11055;DHT22;5580;50.106;8.702;2023-02-23T01:48:57;11.00;99.90
11055;DHT22;5580;50.106;8.702;2023-02-23T01:51:26;11.00;99.90
11055;DHT22;5580;50.106;8.702;2023-02-23T01:54:03;11.00;99.90
11055;DHT22;5580;50.106;8.702;2023-02-23T01:56:34;10.90;99.90
11055;DHT22;5580;50.106;8.702;2023-02-23T01:59:04;10.90;99.90
11055;DHT22;5580;50.106;8.702;2023-02-23T02:01:30;10.90;99.90
11055;DHT22;5580;50.106;8.702;2023-02-23T02:04:01;10.90;99.90
11055;DHT22;5580;50.106;8.702;2023-02-23T02:06:27;10.90;99.90
11055;DHT22;5580;50.106;8.702;2023-02-23T02:08:56;10.80;99.90
11055;DHT22;5580;50.106;8.702;2023-02-23T02:11:23;10.80;99.90
11055;DHT22;5580;50.106;8.702;2023-02-23T02:14:03;10.80;99.90
11055;DHT22;5580;50.106;8.702;2023-02-23T02:39:10;10.80;99.90
11055;DHT22;5580;50.106;8.702;2023-02-23T02:45:01;10.80;99.90
11055;DHT22;5580;50.106;8.702;2023-02-23T02:47:37;10.80;99.90
11055;DHT22;5580;50.106;8.702;2023-02-23T02:50:14;10.80;99.90
11055;DHT22;5580;50.106;8.702;2023-02-23T02:55:16;10.80;99.90
11055;DHT22;5580;50.106;8.702;2023-02-23T02:57:45;10.80;99.90
11055;DHT22;5580;50.106;8.702;2023-02-23T03:00:30;10.80;99.90
11055;DHT22;5580;50.106;8.702;2023-02-23T03:03:47;10.80;99.90
11055;DHT22;5580;50.106;8.702;2023-02-23T03:06:35;10.80;99.90
11055;DHT22;5580;50.106;8.702;2023-02-23T03:09:42;10.70;99.90
11055;DHT22;5580;50.106;8.702;2023-02-23T03:21:33;10.80;99.90
11055;DHT22;5580;50.106;8.702;2023-02-23T03:27:47;10.70;99.90
11055;DHT22;5580;50.106;8.702;2023-02-23T03:30:39;10.70;99.90
11055;DHT22;5580;50.106;8.702;2023-02-23T03:33:59;10.70;99.90
11055;DHT22;5580;50.106;8.702;2023-02-23T03:36:50;10.70;99.90
11055;DHT22;5580;50.106;8.702;2023-02-23T03:39:46;10.70;99.90
11055;DHT22;5580;50.106;8.702;2023-02-23T03:42:35;10.70;99.90
11055;DHT22;5580;50.106;8.702;2023-02-23T03:45:23;10.70;99.90
11055;DHT22;5580;50.106;8.702;2023-02-23T03:48:09;10.70;99.90
11055;DHT22;5580;50.106;8.702;2023-02-23T03:50:58;10.70;99.90
11055;DHT22;5580;50.106;8.702;2023-02-23T03:53:57;10.80;99.90
11055;DHT22;5580;50.106;8.702;2023-02-23T03:56:48;10.80;99.90
11055;DHT22;5580;50.106;8.702;2023-02-23T03:59:37;10.80;99.90
11055;DHT22;5580;50.106;8.702;2023-02-23T04:02:23;10.80;99.90
11055;DHT22;5580;50.106;8.702;2023-02-23T04:05:16;10.80;99.90
11055;DHT22;5580;50.106;8.702;2023-02-23T04:08:03;10.80;99.90
11055;DHT22;5580;50.106;8.702;2023-02-23T04:10:56;10.70;99.90
11055;DHT22;5580;50.106;8.702;2023-02-23T04:13:44;10.70;99.90
11055;DHT22;5580;50.106;8.702;2023-02-23T04:16:13;10.70;99.90
11055;DHT22;5580;50.106;8.702;2023-02-23T04:18:39;10.70;99.90
11055;DHT22;5580;50.106;8.702;2023-02-23T04:21:05;10.70;99.90
11055;DHT22;5580;50.106;8.702;2023-02-23T04:23:31;10.70;99.90
11055;DHT22;5580;50.106;8.702;2023-02-23T04:25:57;10.70;99.90
11055;DHT22;5580;50.106;8.702;2023-02-23T04:28:26;10.70;99.90
11055;DHT22;5580;50.106;8.702;2023-02-23T04:30:52;10.70;99.90
11055;DHT22;5580;50.106;8.702;2023-02-23T04:33:19;10.70;99.90
11055;DHT22;5580;50.106;8.702;2023-02-23T04:35:45;10.70;99.90
11055;DHT22;5580;50.106;8.702;2023-02-23T04:38:10;10.80;99.90
11055;DHT22;5580;50.106;8.702;2023-02-23T04:40:36;10.80;99.90
11055;DHT22;5580;50.106;8.702;2023-02-23T04:43:02;10.80;99.90
11055;DHT22;5580;50.106;8.702;2023-02-23T04:45:28;10.80;99.90
11055;DHT22;5580;50.106;8.702;2023-02-23T04:47:53;10.70;99.90
11055;DHT22;5580;50.106;8.702;2023-02-23T04:50:19;10.80;99.90
11055;DHT22;5580;50.106;8.702;2023-02-23T04:52:45;10.80;99.90
11055;DHT22;5580;50.106;8.702;2023-02-23T04:55:16;10.80;99.90
11055;DHT22;5580;50.106;8.702;2023-02-23T04:57:42;10.80;99.90
11055;DHT22;5580;50.106;8.702;2023-02-23T05:00:08;10.80;99.90
11055;DHT22;5580;50.106;8.702;2023-02-23T05:02:34;10.80;99.90
11055;DHT22;5580;50.106;8.702;2023-02-23T05:05:00;10.80;99.90
11055;DHT22;5580;50.106;8.702;2023-02-23T05:07:25;10.80;99.90
11055;DHT22;5580;50.106;8.702;2023-02-23T05:09:51;10.80;99.90
11055;DHT22;5580;50.106;8.702;2023-02-23T05:12:16;10.90;99.90
11055;DHT22;5580;50.106;8.702;2023-02-23T05:14:42;10.90;99.90
11055;DHT22;5580;50.106;8.702;2023-02-23T05:17:07;10.90;99.90
11055;DHT22;5580;50.106;8.702;2023-02-23T05:19:33;10.90;99.90
11055;DHT22;5580;50.106;8.702;2023-02-23T05:21:59;10.90;99.90
11055;DHT22;5580;50.106;8.702;2023-02-23T05:24:24;10.90;99.90
11055;DHT22;5580;50.106;8.702;2023-02-23T05:26:50;10.90;99.90
11055;DHT22;5580;50.106;8.702;2023-02-23T05:29:16;10.90;99.90
11055;DHT22;5580;50.106;8.702;2023-02-23T05:31:42;10.90;99.90
11055;DHT22;5580;50.106;8.702;2023-02-23T05:34:07;10.90;99.90
11055;DHT22;5580;50.106;8.702;2023-02-23T05:36:33;10.90;99.90
11055;DHT22;5580;50.106;8.702;2023-02-23T05:38:59;10.90;99.90
11055;DHT22;5580;50.106;8.702;2023-02-23T05:41:24;10.90;99.90
11055;DHT22;5580;50.106;8.702;2023-02-23T05:43:50;10.90;99.90
11055;DHT22;5580;50.106;8.702;2023-02-23T05:46:20;10.90;99.90
11055;DHT22;5580;50.106;8.702;2023-02-23T05:48:47;10.90;99.90
11055;DHT22;5580;50.106;8.702;2023-02-23T05:51:14;10.90;99.90
11055;DHT22;5580;50.106;8.702;2023-02-23T05:53:40;10.90;99.90
11055;DHT22;5580;50.106;8.702;2023-02-23T05:56:07;10.90;99.90
11055;DHT22;5580;50.106;8.702;2023-02-23T05:58:34;10.90;99.90
11055;DHT22;5580;50.106;8.702;2023-02-23T06:01:00;10.90;99.90
11055;DHT22;5580;50.106;8.702;2023-02-23T06:03:25;10.90;99.90
11055;DHT22;5580;50.106;8.702;2023-02-23T06:05:52;10.90;99.90
11055;DHT22;5580;50.106;8.702;2023-02-23T06:08:18;10.90;99.90
11055;DHT22;5580;50.106;8.702;2023-02-23T06:10:44;10.90;99.90
11055;DHT22;5580;50.106;8.702;2023-02-23T06:13:10;10.90;99.90
11055;DHT22;5580;50.106;8.702;2023-02-23T06:15:35;10.90;99.90
11055;DHT22;5580;50.106;8.702;2023-02-23T06:18:02;10.90;99.90
11055;DHT22;5580;50.106;8.702;2023-02-23T06:20:27;10.90;99.90
11055;DHT22;5580;50.106;8.702;2023-02-23T06:22:53;10.90;99.90
11055;DHT22;5580;50.106;8.702;2023-02-23T06:25:19;10.90;99.90
11055;DHT22;5580;50.106;8.702;2023-02-23T06:27:45;10.90;99.90
11055;DHT22;5580;50.106;8.702;2023-02-23T06:30:11;10.90;99.90
11055;DHT22;5580;50.106;8.702;2023-02-23T06:32:36;10.90;99.90
11055;DHT22;5580;50.106;8.702;2023-02-23T06:35:06;11.00;99.90
11055;DHT22;5580;50.106;8.702;2023-02-23T06:37:32;10.90;99.90
11055;DHT22;5580;50.106;8.702;2023-02-23T06:39:58;10.90;99.90
11055;DHT22;5580;50.106;8.702;2023-02-23T06:42:24;10.90;99.90
11055;DHT22;5580;50.106;8.702;2023-02-23T06:44:49;11.00;99.90
11055;DHT22;5580;50.106;8.702;2023-02-23T06:47:15;11.00;99.90
11055;DHT22;5580;50.106;8.702;2023-02-23T06:49:41;10.90;99.90
11055;DHT22;5580;50.106;8.702;2023-02-23T06:52:07;10.90;99.90
11055;DHT22;5580;50.106;8.702;2023-02-23T06:54:34;10.90;99.90
11055;DHT22;5580;50.106;8.702;2023-02-23T06:57:00;10.90;99.90
11055;DHT22;5580;50.106;8.702;2023-02-23T06:59:25;10.90;99.90
11055;DHT22;5580;50.106;8.702;2023-02-23T07:01:51;10.90;99.90
11055;DHT22;5580;50.106;8.702;2023-02-23T07:04:17;10.90;99.90
11055;DHT22;5580;50.106;8.702;2023-02-23T07:06:43;11.00;99.90
11055;DHT22;5580;50.106;8.702;2023-02-23T07:09:08;11.00;99.90
11055;DHT22;5580;50.106;8.702;2023-02-23T07:11:34;11.00;99.90
11055;DHT22;5580;50.106;8.702;2023-02-23T07:14:00;11.00;99.90
11055;DHT22;5580;50.106;8.702;2023-02-23T07:16:27;11.00;99.90
11055;DHT22;5580;50.106;8.702;2023-02-23T07:18:54;11.00;99.90
11055;DHT22;5580;50.106;8.702;2023-02-23T07:21:19;11.00;99.90
11055;DHT22;5580;50.106;8.702;2023-02-23T07:23:45;11.00;99.90
11055;DHT22;5580;50.106;8.702;2023-02-23T07:26:15;11.00;99.90
11055;DHT22;5580;50.106;8.702;2023-02-23T07:28:41;11.00;99.90
11055;DHT22;5580;50.106;8.702;2023-02-23T07:31:07;11.00;99.90
11055;DHT22;5580;50.106;8.702;2023-02-23T07:33:33;11.00;99.90
11055;DHT22;5580;50.106;8.702;2023-02-23T07:35:58;11.10;99.90
11055;DHT22;5580;50.106;8.702;2023-02-23T07:38:24;11.10;99.90
11055;DHT22;5580;50.106;8.702;2023-02-23T07:40:50;11.10;99.90
11055;DHT22;5580;50.106;8.702;2023-02-23T07:43:16;11.10;99.90
11055;DHT22;5580;50.106;8.702;2023-02-23T07:45:41;11.10;99.90
11055;DHT22;5580;50.106;8.702;2023-02-23T07:48:08;11.10;99.90
11055;DHT22;5580;50.106;8.702;2023-02-23T07:50:33;11.10;99.90
11055;DHT22;5580;50.106;8.702;2023-02-23T07:53:00;11.10;99.90
11055;DHT22;5580;50.106;8.702;2023-02-23T07:55:26;11.10;99.90
11055;DHT22;5580;50.106;8.702;2023-02-23T07:57:52;11.10;99.90
11055;DHT22;5580;50.106;8.702;2023-02-23T08:00:18;11.20;99.90
11055;DHT22;5580;50.106;8.702;2023-02-23T08:02:43;11.20;99.90
11055;DHT22;5580;50.106;8.702;2023-02-23T08:05:09;11.20;99.90
11055;DHT22;5580;50.106;8.702;2023-02-23T08:07:35;11.20;99.90
11055;DHT22;5580;50.106;8.702;2023-02-23T08:10:00;11.20;99.90
11055;DHT22;5580;50.106;8.702;2023-02-23T08:12:26;11.30;99.90
11055;DHT22;5580;50.106;8.702;2023-02-23T08:14:52;11.30;99.90
11055;DHT22;5580;50.106;8.702;2023-02-23T08:17:18;11.20;99.90
11055;DHT22;5580;50.106;8.702;2023-02-23T08:19:44;11.20;99.90
11055;DHT22;5580;50.106;8.702;2023-02-23T08:22:09;11.30;99.90
11055;DHT22;5580;50.106;8.702;2023-02-23T08:24:36;11.30;99.90
11055;DHT22;5580;50.106;8.702;2023-02-23T08:27:03;11.30;99.90
11055;DHT22;5580;50.106;8.702;2023-02-23T08:29:28;11.30;99.90
11055;DHT22;5580;50.106;8.702;2023-02-23T08:31:54;11.40;99.90
11055;DHT22;5580;50.106;8.702;2023-02-23T08:34:21;11.40;99.90
11055;DHT22;5580;50.106;8.702;2023-02-23T08:36:47;11.40;99.90
11055;DHT22;5580;50.106;8.702;2023-02-23T08:39:13;11.40;99.90
11055;DHT22;5580;50.106;8.702;2023-02-23T08:41:39;11.40;99.90
11055;DHT22;5580;50.106;8.702;2023-02-23T08:44:05;11.40;99.90
11055;DHT22;5580;50.106;8.702;2023-02-23T08:46:31;11.40;99.90
11055;DHT22;5580;50.106;8.702;2023-02-23T08:48:57;11.40;99.90
11055;DHT22;5580;50.106;8.702;2023-02-23T08:51:22;11.40;99.90
11055;DHT22;5580;50.106;8.702;2023-02-23T08:53:48;11.40;99.90
11055;DHT22;5580;50.106;8.702;2023-02-23T08:56:13;11.40;99.90
11055;DHT22;5580;50.106;8.702;2023-02-23T08:58:40;11.40;99.90
11055;DHT22;5580;50.106;8.702;2023-02-23T09:01:06;11.40;99.90
11055;DHT22;5580;50.106;8.702;2023-02-23T09:03:33;11.50;99.90
11055;DHT22;5580;50.106;8.702;2023-02-23T09:06:07;11.50;99.90
11055;DHT22;5580;50.106;8.702;2023-02-23T09:08:32;11.50;99.90
11055;DHT22;5580;50.106;8.702;2023-02-23T09:10:58;11.50;99.90
11055;DHT22;5580;50.106;8.702;2023-02-23T09:13:24;11.50;99.90
11055;DHT22;5580;50.106;8.702;2023-02-23T09:15:49;11.50;99.90
11055;DHT22;5580;50.106;8.702;2023-02-23T09:18:15;11.50;99.90
11055;DHT22;5580;50.106;8.702;2023-02-23T09:20:43;11.60;99.90
11055;DHT22;5580;50.106;8.702;2023-02-23T09:23:09;11.60;99.90
11055;DHT22;5580;50.106;8.702;2023-02-23T09:25:41;11.60;99.90
11055;DHT22;5580;50.106;8.702;2023-02-23T09:28:10;11.70;99.90
11055;DHT22;5580;50.106;8.702;2023-02-23T09:30:37;11.70;99.90
11055;DHT22;5580;50.106;8.702;2023-02-23T09:33:03;11.70;99.90
11055;DHT22;5580;50.106;8.702;2023-02-23T09:35:28;11.70;99.90
11055;DHT22;5580;50.106;8.702;2023-02-23T09:37:55;11.80;99.90
11055;DHT22;5580;50.106;8.702;2023-02-23T09:40:29;11.80;99.90
11055;DHT22;5580;50.106;8.702;2023-02-23T09:50:30;11.80;99.90
11055;DHT22;5580;50.106;8.702;2023-02-23T09:53:01;11.80;99.90
11055;DHT22;5580;50.106;8.702;2023-02-23T09:55:27;11.80;99.90
11055;DHT22;5580;50.106;8.702;2023-02-23T09:57:57;11.80;99.90
11055;DHT22;5580;50.106;8.702;2023-02-23T10:00:27;11.80;99.90
11055;DHT22;5580;50.106;8.702;2023-02-23T10:03:07;11.80;99.90
11055;DHT22;5580;50.106;8.702;2023-02-23T10:05:39;11.90;99.90
11055;DHT22;5580;50.106;8.702;2023-02-23T10:08:18;11.90;99.90
11055;DHT22;5580;50.106;8.702;2023-02-23T10:11:03;12.00;99.90
11055;DHT22;5580;50.106;8.702;2023-02-23T10:14:11;12.00;99.90
11055;DHT22;5580;50.106;8.702;2023-02-23T10:19:58;12.00;99.90
11055;DHT22;5580;50.106;8.702;2023-02-23T10:22:26;12.10;99.90
11055;DHT22;5580;50.106;8.702;2023-02-23T10:24:55;12.10;99.90
11055;DHT22;5580;50.106;8.702;2023-02-23T10:27:28;12.20;99.90
11055;DHT22;5580;50.106;8.702;2023-02-23T10:29:58;12.20;99.90
11055;DHT22;5580;50.106;8.702;2023-02-23T10:32:49;12.30;99.90
11055;DHT22;5580;50.106;8.702;2023-02-23T10:35:18;12.30;99.90
11055;DHT22;5580;50.106;8.702;2023-02-23T10:37:46;12.30;99.90
11055;DHT22;5580;50.106;8.702;2023-02-23T10:40:20;12.40;99.90
11055;DHT22;5580;50.106;8.702;2023-02-23T10:42:47;12.40;99.90
11055;DHT22;5580;50.106;8.702;2023-02-23T10:45:15;12.40;99.90
11055;DHT22;5580;50.106;8.702;2023-02-23T10:47:59;12.50;99.90
11055;DHT22;5580;50.106;8.702;2023-02-23T10:50:26;12.50;99.90
11055;DHT22;5580;50.106;8.702;2023-02-23T10:52:59;12.50;99.90
11055;DHT22;5580;50.106;8.702;2023-02-23T10:55:30;12.50;99.90
11055;DHT22;5580;50.106;8.702;2023-02-23T10:58:17;12.40;99.90
11055;DHT22;5580;50.106;8.702;2023-02-23T11:00:53;12.40;99.90
11055;DHT22;5580;50.106;8.702;2023-02-23T11:03:27;12.40;99.90
11055;DHT22;5580;50.106;8.702;2023-02-23T11:05:53;12.30;99.90
11055;DHT22;5580;50.106;8.702;2023-02-23T11:11:33;12.30;99.90
11055;DHT22;5580;50.106;8.702;2023-02-23T11:13:55;12.30;99.90
11055;DHT22;5580;50.106;8.702;2023-02-23T11:16:23;12.30;99.90
11055;DHT22;5580;50.106;8.702;2023-02-23T11:19:02;12.40;99.90
11055;DHT22;5580;50.106;8.702;2023-02-23T11:21:33;12.40;99.90
11055;DHT22;5580;50.106;8.702;2023-02-23T11:24:25;12.50;99.90
11055;DHT22;5580;50.106;8.702;2023-02-23T11:26:54;12.60;99.90
11055;DHT22;5580;50.106;8.702;2023-02-23T11:29:27;12.60;99.90
11055;DHT22;5580;50.106;8.702;2023-02-23T11:31:56;12.60;99.90
11055;DHT22;5580;50.106;8.702;2023-02-23T11:34:34;12.60;99.90
11055;DHT22;5580;50.106;8.702;2023-02-23T11:37:17;12.60;99.90
11055;DHT22;5580;50.106;8.702;2023-02-23T11:40:01;12.60;99.90
11055;DHT22;5580;50.106;8.702;2023-02-23T11:42:29;12.70;99.90
11055;DHT22;5580;50.106;8.702;2023-02-23T11:45:06;12.70;99.90
11055;DHT22;5580;50.106;8.702;2023-02-23T11:47:40;12.80;99.90
11055;DHT22;5580;50.106;8.702;2023-02-23T11:50:07;12.80;99.90
11055;DHT22;5580;50.106;8.702;2023-02-23T11:52:44;12.80;99.90
11055;DHT22;5580;50.106;8.702;2023-02-23T11:55:15;12.90;99.90
11055;DHT22;5580;50.106;8.702;2023-02-23T11:57:42;13.00;99.90
11055;DHT22;5580;50.106;8.702;2023-02-23T12:00:10;13.00;99.90
11055;DHT22;5580;50.106;8.702;2023-02-23T12:02:50;13.00;99.90
11055;DHT22;5580;50.106;8.702;2023-02-23T12:05:29;13.10;99.90
11055;DHT22;5580;50.106;8.702;2023-02-23T12:08:18;13.10;99.90
11055;DHT22;5580;50.106;8.702;2023-02-23T12:10:54;13.20;99.90
11055;DHT22;5580;50.106;8.702;2023-02-23T12:13:33;13.20;99.90
11055;DHT22;5580;50.106;8.702;2023-02-23T12:18:43;13.30;99.90
11055;DHT22;5580;50.106;8.702;2023-02-23T12:23:41;13.40;99.90
11055;DHT22;5580;50.106;8.702;2023-02-23T12:26:15;13.50;99.90
11055;DHT22;5580;50.106;8.702;2023-02-23T12:29:04;13.50;99.90
11055;DHT22;5580;50.106;8.702;2023-02-23T12:31:50;13.50;99.90
11055;DHT22;5580;50.106;8.702;2023-02-23T12:36:57;13.40;99.90
11055;DHT22;5580;50.106;8.702;2023-02-23T12:39:42;13.40;99.90
11055;DHT22;5580;50.106;8.702;2023-02-23T12:42:34;13.40;99.90
11055;DHT22;5580;50.106;8.702;2023-02-23T12:45:06;13.40;99.90
11055;DHT22;5580;50.106;8.702;2023-02-23T13:01:25;13.30;99.90
11055;DHT22;5580;50.106;8.702;2023-02-23T13:07:13;13.30;99.90
11055;DHT22;5580;50.106;8.702;2023-02-23T13:17:45;13.20;99.90
11055;DHT22;5580;50.106;8.702;2023-02-23T13:20:29;13.20;99.90
11055;DHT22;5580;50.106;8.702;2023-02-23T13:23:25;13.30;99.90
11055;DHT22;5580;50.106;8.702;2023-02-23T13:26:15;13.30;99.90
11055;DHT22;5580;50.106;8.702;2023-02-23T13:31:33;13.40;99.90
11055;DHT22;5580;50.106;8.702;2023-02-23T13:34:01;13.40;99.90
11055;DHT22;5580;50.106;8.702;2023-02-23T13:36:30;13.30;99.90
11055;DHT22;5580;50.106;8.702;2023-02-23T13:41:48;13.40;99.90
11055;DHT22;5580;50.106;8.702;2023-02-23T13:44:18;13.40;99.90
11055;DHT22;5580;50.106;8.702;2023-02-23T13:46:48;13.30;99.90
11055;DHT22;5580;50.106;8.702;2023-02-23T13:51:56;13.40;99.90
11055;DHT22;5580;50.106;8.702;2023-02-23T13:54:31;13.40;99.90
11055;DHT22;5580;50.106;8.702;2023-02-23T13:57:02;13.40;99.90
11055;DHT22;5580;50.106;8.702;2023-02-23T13:59:36;13.40;99.90
11055;DHT22;5580;50.106;8.702;2023-02-23T14:04:48;13.50;99.90
11055;DHT22;5580;50.106;8.702;2023-02-23T14:07:24;13.50;99.90
11055;DHT22;5580;50.106;8.702;2023-02-23T14:09:57;13.50;99.90
11055;DHT22;5580;50.106;8.702;2023-02-23T14:15:45;13.60;99.90
11055;DHT22;5580;50.106;8.702;2023-02-23T14:20:51;13.60;99.90
11055;DHT22;5580;50.106;8.702;2023-02-23T14:26:14;13.70;99.90
11055;DHT22;5580;50.106;8.702;2023-02-23T14:29:30;13.70;99.90
11055;DHT22;5580;50.106;8.702;2023-02-23T14:31:31;13.70;99.90
11055;DHT22;5580;50.106;8.702;2023-02-23T14:33:58;13.70;99.90
11055;DHT22;5580;50.106;8.702;2023-02-23T14:43:59;13.80;99.90
11055;DHT22;5580;50.106;8.702;2023-02-23T14:46:31;13.80;99.90
11055;DHT22;5580;50.106;8.702;2023-02-23T14:49:20;13.80;99.90
11055;DHT22;5580;50.106;8.702;2023-02-23T14:51:51;13.80;99.90
11055;DHT22;5580;50.106;8.702;2023-02-23T14:54:21;13.70;99.90
11055;DHT22;5580;50.106;8.702;2023-02-23T14:56:50;13.60;99.90
11055;DHT22;5580;50.106;8.702;2023-02-23T14:59:21;13.60;99.90
11055;DHT22;5580;50.106;8.702;2023-02-23T15:01:49;13.50;99.90
11055;DHT22;5580;50.106;8.702;2023-02-23T15:04:25;13.50;99.90
11055;DHT22;5580;50.106;8.702;2023-02-23T15:06:56;13.50;99.90
11055;DHT22;5580;50.106;8.702;2023-02-23T15:09:32;13.50;99.90
11055;DHT22;5580;50.106;8.702;2023-02-23T15:12:06;13.50;99.90
11055;DHT22;5580;50.106;8.702;2023-02-23T15:14:36;13.50;99.90
11055;DHT22;5580;50.106;8.702;2023-02-23T15:17:03;13.50;99.90
11055;DHT22;5580;50.106;8.702;2023-02-23T15:19:32;13.50;99.90
11055;DHT22;5580;50.106;8.702;2023-02-23T15:21:59;13.50;99.90
11055;DHT22;5580;50.106;8.702;2023-02-23T15:24:30;13.50;99.90
11055;DHT22;5580;50.106;8.702;2023-02-23T15:26:56;13.40;99.90
11055;DHT22;5580;50.106;8.702;2023-02-23T15:29:32;13.40;99.90
11055;DHT22;5580;50.106;8.702;2023-02-23T15:32:17;13.40;99.90
11055;DHT22;5580;50.106;8.702;2023-02-23T15:34:43;13.40;99.90
11055;DHT22;5580;50.106;8.702;2023-02-23T15:40:00;13.40;99.90
11055;DHT22;5580;50.106;8.702;2023-02-23T15:42:35;13.30;99.90
11055;DHT22;5580;50.106;8.702;2023-02-23T15:45:10;13.30;99.90
11055;DHT22;5580;50.106;8.702;2023-02-23T15:47:39;13.40;99.90
11055;DHT22;5580;50.106;8.702;2023-02-23T15:50:13;13.40;99.90
11055;DHT22;5580;50.106;8.702;2023-02-23T15:52:49;13.40;99.90
11055;DHT22;5580;50.106;8.702;2023-02-23T15:55:27;13.40;99.90
11055;DHT22;5580;50.106;8.702;2023-02-23T15:57:59;13.50;99.90
11055;DHT22;5580;50.106;8.702;2023-02-23T16:00:36;13.40;99.90
11055;DHT22;5580;50.106;8.702;2023-02-23T16:03:04;13.50;99.90
11055;DHT22;5580;50.106;8.702;2023-02-23T16:05:32;13.40;99.90
11055;DHT22;5580;50.106;8.702;2023-02-23T16:08:15;13.40;99.90
11055;DHT22;5580;50.106;8.702;2023-02-23T16:10:47;13.40;99.90
11055;DHT22;5580;50.106;8.702;2023-02-23T16:13:17;13.40;99.90
11055;DHT22;5580;50.106;8.702;2023-02-23T16:15:44;13.40;99.90
11055;DHT22;5580;50.106;8.702;2023-02-23T16:18:34;13.30;99.90
11055;DHT22;5580;50.106;8.702;2023-02-23T16:21:03;13.30;99.90
11055;DHT22;5580;50.106;8.702;2023-02-23T16:23:41;13.20;99.90
11055;DHT22;5580;50.106;8.702;2023-02-23T16:28:42;13.20;99.90
11055;DHT22;5580;50.106;8.702;2023-02-23T16:31:09;13.20;99.90
11055;DHT22;5580;50.106;8.702;2023-02-23T16:33:51;13.20;99.90
11055;DHT22;5580;50.106;8.702;2023-02-23T16:36:23;13.30;99.90
11055;DHT22;5580;50.106;8.702;2023-02-23T16:41:22;13.20;99.90
11055;DHT22;5580;50.106;8.702;2023-02-23T16:43:49;13.20;99.90
11055;DHT22;5580;50.106;8.702;2023-02-23T16:46:16;13.20;99.90
11055;DHT22;5580;50.106;8.702;2023-02-23T16:48:42;13.20;99.90
11055;DHT22;5580;50.106;8.702;2023-02-23T16:51:13;13.20;99.90
11055;DHT22;5580;50.106;8.702;2023-02-23T16:53:39;13.20;99.90
11055;DHT22;5580;50.106;8.702;2023-02-23T16:56:05;13.20;99.90
11055;DHT22;5580;50.106;8.702;2023-02-23T16:58:37;13.20;99.90
11055;DHT22;5580;50.106;8.702;2023-02-23T17:01:03;13.20;99.90
11055;DHT22;5580;50.106;8.702;2023-02-23T17:03:29;13.20;99.90
11055;DHT22;5580;50.106;8.702;2023-02-23T17:05:55;13.20;99.90
11055;DHT22;5580;50.106;8.702;2023-02-23T17:08:21;13.10;99.90
11055;DHT22;5580;50.106;8.702;2023-02-23T17:10:49;13.10;99.90
11055;DHT22;5580;50.106;8.702;2023-02-23T17:13:19;13.10;99.90
11055;DHT22;5580;50.106;8.702;2023-02-23T17:15:46;13.10;99.90
11055;DHT22;5580;50.106;8.702;2023-02-23T17:18:16;13.10;99.90
11055;DHT22;5580;50.106;8.702;2023-02-23T17:20:43;13.10;99.90
11055;DHT22;5580;50.106;8.702;2023-02-23T17:23:09;13.10;99.90
11055;DHT22;5580;50.106;8.702;2023-02-23T17:25:34;13.10;99.90
11055;DHT22;5580;50.106;8.702;2023-02-23T17:28:01;13.10;99.90
11055;DHT22;5580;50.106;8.702;2023-02-23T17:30:27;13.10;99.90
11055;DHT22;5580;50.106;8.702;2023-02-23T17:32:55;13.10;99.90
11055;DHT22;5580;50.106;8.702;2023-02-23T17:35:22;13.10;99.90
11055;DHT22;5580;50.106;8.702;2023-02-23T17:37:48;13.00;99.90
11055;DHT22;5580;50.106;8.702;2023-02-23T17:40:22;13.00;99.90
11055;DHT22;5580;50.106;8.702;2023-02-23T17:43:00;13.00;99.90
11055;DHT22;5580;50.106;8.702;2023-02-23T17:45:27;12.90;99.90
11055;DHT22;5580;50.106;8.702;2023-02-23T17:47:53;12.90;99.90
11055;DHT22;5580;50.106;8.702;2023-02-23T17:50:19;12.80;99.90
11055;DHT22;5580;50.106;8.702;2023-02-23T17:52:47;12.80;99.90
11055;DHT22;5580;50.106;8.702;2023-02-23T17:55:12;12.80;99.90
11055;DHT22;5580;50.106;8.702;2023-02-23T17:57:38;12.80;99.90
11055;DHT22;5580;50.106;8.702;2023-02-23T18:00:04;12.80;99.90
11055;DHT22;5580;50.106;8.702;2023-02-23T18:02:31;12.80;99.90
11055;DHT22;5580;50.106;8.702;2023-02-23T18:04:57;12.70;99.90
11055;DHT22;5580;50.106;8.702;2023-02-23T18:07:23;12.70;99.90
11055;DHT22;5580;50.106;8.702;2023-02-23T18:09:49;12.70;99.90